Terminal Aerodrome Forecast
Issued by NWS

Home | Current Version | Previous Version | Text Only | Print | Product List | Glossary On
Versions: 1 2 3 4 5 6 7 8 9 10 11 12
435
FTUS46 KMTR 262339
TAFMRY
TAF
KMRY 262339Z 2700/2724 26012KT P6SM BKN016 BKN024
     FM270400 25006KT P6SM OVC008
     FM271600 24006KT P6SM BKN007 OVC013
     FM271900 28010G15KT P6SM BKN010 OVC020=

USA.gov is the U.S. government's official web portal to all federal, state and local government web resources and services.